sensor_id;sensor_type;location;lat;lon;timestamp;temperature;humidity
64501;DHT22;50874;24.150;-110.320;2024-03-23T00:55:18;29.60;46.80
64501;DHT22;50874;24.150;-110.320;2024-03-23T00:57:44;29.40;47.10
64501;DHT22;50874;24.150;-110.320;2024-03-23T01:00:11;29.10;47.50
64501;DHT22;50874;24.150;-110.320;2024-03-23T01:02:38;29.00;47.80
64501;DHT22;50874;24.150;-110.320;2024-03-23T01:05:04;28.90;48.10
64501;DHT22;50874;24.150;-110.320;2024-03-23T01:07:31;28.80;47.90
64501;DHT22;50874;24.150;-110.320;2024-03-23T01:09:57;28.70;47.40
64501;DHT22;50874;24.150;-110.320;2024-03-23T01:12:24;28.70;47.10
64501;DHT22;50874;24.150;-110.320;2024-03-23T01:14:50;28.60;46.60
64501;DHT22;50874;24.150;-110.320;2024-03-23T01:17:17;28.50;46.80
64501;DHT22;50874;24.150;-110.320;2024-03-23T01:19:43;28.40;47.30
64501;DHT22;50874;24.150;-110.320;2024-03-23T01:22:10;28.40;47.20
64501;DHT22;50874;24.150;-110.320;2024-03-23T01:24:36;28.30;47.40
64501;DHT22;50874;24.150;-110.320;2024-03-23T01:27:03;28.30;47.30
64501;DHT22;50874;24.150;-110.320;2024-03-23T01:29:30;28.30;47.00
64501;DHT22;50874;24.150;-110.320;2024-03-23T01:31:56;28.20;48.40
64501;DHT22;50874;24.150;-110.320;2024-03-23T01:34:23;28.10;48.90
64501;DHT22;50874;24.150;-110.320;2024-03-23T01:36:51;28.10;50.70
64501;DHT22;50874;24.150;-110.320;2024-03-23T01:39:17;27.90;63.40
64501;DHT22;50874;24.150;-110.320;2024-03-23T01:41:44;27.60;68.40
64501;DHT22;50874;24.150;-110.320;2024-03-23T01:44:10;27.50;71.20
64501;DHT22;50874;24.150;-110.320;2024-03-23T01:46:39;27.40;72.60
64501;DHT22;50874;24.150;-110.320;2024-03-23T01:49:07;27.30;74.20
64501;DHT22;50874;24.150;-110.320;2024-03-23T01:51:36;27.20;76.00
64501;DHT22;50874;24.150;-110.320;2024-03-23T01:54:03;27.00;76.80
64501;DHT22;50874;24.150;-110.320;2024-03-23T01:56:35;26.90;78.20
64501;DHT22;50874;24.150;-110.320;2024-03-23T01:59:03;26.70;79.10
64501;DHT22;50874;24.150;-110.320;2024-03-23T02:01:29;26.70;80.30
64501;DHT22;50874;24.150;-110.320;2024-03-23T02:03:56;26.60;81.70
64501;DHT22;50874;24.150;-110.320;2024-03-23T02:06:24;26.50;82.90
64501;DHT22;50874;24.150;-110.320;2024-03-23T02:08:51;26.50;84.40
64501;DHT22;50874;24.150;-110.320;2024-03-23T02:11:18;26.40;86.50
64501;DHT22;50874;24.150;-110.320;2024-03-23T02:13:44;26.40;88.30
64501;DHT22;50874;24.150;-110.320;2024-03-23T02:16:11;26.30;90.00
64501;DHT22;50874;24.150;-110.320;2024-03-23T02:18:37;26.30;91.40
64501;DHT22;50874;24.150;-110.320;2024-03-23T02:21:04;26.20;92.50
64501;DHT22;50874;24.150;-110.320;2024-03-23T02:23:30;26.20;94.70
64501;DHT22;50874;24.150;-110.320;2024-03-23T02:25:57;26.00;96.00
64501;DHT22;50874;24.150;-110.320;2024-03-23T02:28:23;25.90;97.30
64501;DHT22;50874;24.150;-110.320;2024-03-23T02:30:50;25.80;99.40
64501;DHT22;50874;24.150;-110.320;2024-03-23T02:33:17;25.70;99.90
64501;DHT22;50874;24.150;-110.320;2024-03-23T02:35:46;25.60;99.90
64501;DHT22;50874;24.150;-110.320;2024-03-23T02:38:13;25.50;99.90
64501;DHT22;50874;24.150;-110.320;2024-03-23T02:40:40;25.40;99.90
64501;DHT22;50874;24.150;-110.320;2024-03-23T02:43:06;25.40;99.90
64501;DHT22;50874;24.150;-110.320;2024-03-23T02:45:33;25.30;99.90
64501;DHT22;50874;24.150;-110.320;2024-03-23T02:47:59;25.20;99.90
64501;DHT22;50874;24.150;-110.320;2024-03-23T02:50:25;25.30;99.90
64501;DHT22;50874;24.150;-110.320;2024-03-23T02:52:52;25.30;99.90
64501;DHT22;50874;24.150;-110.320;2024-03-23T02:55:18;25.20;99.90
64501;DHT22;50874;24.150;-110.320;2024-03-23T02:57:45;25.30;99.90
64501;DHT22;50874;24.150;-110.320;2024-03-23T03:00:12;25.30;99.90
64501;DHT22;50874;24.150;-110.320;2024-03-23T03:02:39;25.30;99.90
64501;DHT22;50874;24.150;-110.320;2024-03-23T03:05:05;25.30;99.90
64501;DHT22;50874;24.150;-110.320;2024-03-23T03:07:32;25.20;99.90
64501;DHT22;50874;24.150;-110.320;2024-03-23T03:09:59;25.20;99.90
64501;DHT22;50874;24.150;-110.320;2024-03-23T03:12:25;25.00;99.90
64501;DHT22;50874;24.150;-110.320;2024-03-23T03:14:53;25.10;99.90
64501;DHT22;50874;24.150;-110.320;2024-03-23T03:17:19;25.00;99.90
64501;DHT22;50874;24.150;-110.320;2024-03-23T03:19:46;25.00;99.90
64501;DHT22;50874;24.150;-110.320;2024-03-23T03:22:12;24.90;99.90
64501;DHT22;50874;24.150;-110.320;2024-03-23T03:24:39;24.90;99.90
64501;DHT22;50874;24.150;-110.320;2024-03-23T03:27:05;24.80;99.90
64501;DHT22;50874;24.150;-110.320;2024-03-23T03:29:32;24.70;99.90
64501;DHT22;50874;24.150;-110.320;2024-03-23T03:32:02;24.70;99.90
64501;DHT22;50874;24.150;-110.320;2024-03-23T03:34:29;24.60;99.90
64501;DHT22;50874;24.150;-110.320;2024-03-23T03:36:56;24.60;99.90
64501;DHT22;50874;24.150;-110.320;2024-03-23T03:39:23;24.60;99.90
64501;DHT22;50874;24.150;-110.320;2024-03-23T03:41:50;24.60;99.90
64501;DHT22;50874;24.150;-110.320;2024-03-23T03:44:17;24.60;99.90
64501;DHT22;50874;24.150;-110.320;2024-03-23T03:46:43;24.50;99.90
64501;DHT22;50874;24.150;-110.320;2024-03-23T03:49:10;24.40;99.90
64501;DHT22;50874;24.150;-110.320;2024-03-23T03:51:36;24.30;99.90
64501;DHT22;50874;24.150;-110.320;2024-03-23T03:54:03;24.20;99.90
64501;DHT22;50874;24.150;-110.320;2024-03-23T03:56:29;24.10;99.90
64501;DHT22;50874;24.150;-110.320;2024-03-23T03:58:56;24.00;99.90
64501;DHT22;50874;24.150;-110.320;2024-03-23T04:01:23;23.90;99.90
64501;DHT22;50874;24.150;-110.320;2024-03-23T04:03:49;23.80;99.90
64501;DHT22;50874;24.150;-110.320;2024-03-23T04:06:19;23.80;99.90
64501;DHT22;50874;24.150;-110.320;2024-03-23T04:08:46;23.70;99.90
64501;DHT22;50874;24.150;-110.320;2024-03-23T04:11:12;23.70;99.90
64501;DHT22;50874;24.150;-110.320;2024-03-23T04:13:39;23.70;99.90
64501;DHT22;50874;24.150;-110.320;2024-03-23T04:16:07;23.60;99.90
64501;DHT22;50874;24.150;-110.320;2024-03-23T04:18:35;23.60;99.90
64501;DHT22;50874;24.150;-110.320;2024-03-23T04:21:02;23.40;99.90
64501;DHT22;50874;24.150;-110.320;2024-03-23T04:23:28;23.40;99.90
64501;DHT22;50874;24.150;-110.320;2024-03-23T04:25:55;23.40;99.90
64501;DHT22;50874;24.150;-110.320;2024-03-23T04:28:21;23.40;99.90
64501;DHT22;50874;24.150;-110.320;2024-03-23T04:30:48;23.30;99.90
64501;DHT22;50874;24.150;-110.320;2024-03-23T04:33:15;23.30;99.90
64501;DHT22;50874;24.150;-110.320;2024-03-23T04:35:41;23.30;99.90
64501;DHT22;50874;24.150;-110.320;2024-03-23T04:38:07;23.20;99.90
64501;DHT22;50874;24.150;-110.320;2024-03-23T04:40:34;22.90;99.90
64501;DHT22;50874;24.150;-110.320;2024-03-23T04:43:01;22.80;99.90
64501;DHT22;50874;24.150;-110.320;2024-03-23T04:45:27;22.70;99.90
64501;DHT22;50874;24.150;-110.320;2024-03-23T04:47:53;22.50;99.90
64501;DHT22;50874;24.150;-110.320;2024-03-23T04:50:20;22.20;99.90
64501;DHT22;50874;24.150;-110.320;2024-03-23T04:52:46;22.00;99.90
64501;DHT22;50874;24.150;-110.320;2024-03-23T04:55:13;21.70;99.90
64501;DHT22;50874;24.150;-110.320;2024-03-23T04:57:40;21.70;99.90
64501;DHT22;50874;24.150;-110.320;2024-03-23T05:00:07;21.60;99.90
64501;DHT22;50874;24.150;-110.320;2024-03-23T05:02:43;21.60;99.90
64501;DHT22;50874;24.150;-110.320;2024-03-23T05:05:10;21.50;99.90
64501;DHT22;50874;24.150;-110.320;2024-03-23T05:07:37;21.50;99.90
64501;DHT22;50874;24.150;-110.320;2024-03-23T05:10:04;21.40;99.90
64501;DHT22;50874;24.150;-110.320;2024-03-23T05:12:30;21.40;99.90
64501;DHT22;50874;24.150;-110.320;2024-03-23T05:14:58;21.50;99.90
64501;DHT22;50874;24.150;-110.320;2024-03-23T05:17:24;21.50;99.90
64501;DHT22;50874;24.150;-110.320;2024-03-23T05:19:51;21.60;99.90
64501;DHT22;50874;24.150;-110.320;2024-03-23T05:22:17;21.60;99.90
64501;DHT22;50874;24.150;-110.320;2024-03-23T05:24:45;21.80;99.90
64501;DHT22;50874;24.150;-110.320;2024-03-23T05:27:12;21.90;99.90
64501;DHT22;50874;24.150;-110.320;2024-03-23T05:29:39;21.90;99.90
64501;DHT22;50874;24.150;-110.320;2024-03-23T05:32:05;22.00;99.90
64501;DHT22;50874;24.150;-110.320;2024-03-23T05:34:32;22.00;99.90
64501;DHT22;50874;24.150;-110.320;2024-03-23T05:36:59;22.10;99.90
64501;DHT22;50874;24.150;-110.320;2024-03-23T05:39:25;22.00;99.90
64501;DHT22;50874;24.150;-110.320;2024-03-23T05:41:52;22.10;99.90
64501;DHT22;50874;24.150;-110.320;2024-03-23T05:44:18;22.00;99.90
64501;DHT22;50874;24.150;-110.320;2024-03-23T05:46:45;22.00;99.90
64501;DHT22;50874;24.150;-110.320;2024-03-23T05:49:15;22.10;99.90
64501;DHT22;50874;24.150;-110.320;2024-03-23T05:51:43;22.10;99.90
64501;DHT22;50874;24.150;-110.320;2024-03-23T05:54:09;22.00;99.90
64501;DHT22;50874;24.150;-110.320;2024-03-23T05:56:36;22.00;99.90
64501;DHT22;50874;24.150;-110.320;2024-03-23T05:59:02;22.00;99.90
64501;DHT22;50874;24.150;-110.320;2024-03-23T06:01:29;22.00;99.90
64501;DHT22;50874;24.150;-110.320;2024-03-23T06:03:58;21.90;99.90
64501;DHT22;50874;24.150;-110.320;2024-03-23T06:06:27;21.80;99.90
64501;DHT22;50874;24.150;-110.320;2024-03-23T06:08:56;21.80;99.90
64501;DHT22;50874;24.150;-110.320;2024-03-23T06:11:22;21.80;99.90
64501;DHT22;50874;24.150;-110.320;2024-03-23T06:13:49;21.80;99.90
64501;DHT22;50874;24.150;-110.320;2024-03-23T06:16:16;21.80;99.90
64501;DHT22;50874;24.150;-110.320;2024-03-23T06:18:42;21.70;99.90
64501;DHT22;50874;24.150;-110.320;2024-03-23T06:21:13;21.70;99.90
64501;DHT22;50874;24.150;-110.320;2024-03-23T06:23:41;21.60;99.90
64501;DHT22;50874;24.150;-110.320;2024-03-23T06:26:08;21.50;99.90
64501;DHT22;50874;24.150;-110.320;2024-03-23T06:28:34;21.30;99.90
64501;DHT22;50874;24.150;-110.320;2024-03-23T06:31:01;21.20;99.90
64501;DHT22;50874;24.150;-110.320;2024-03-23T06:33:28;21.10;99.90
64501;DHT22;50874;24.150;-110.320;2024-03-23T06:35:54;21.00;99.90
64501;DHT22;50874;24.150;-110.320;2024-03-23T06:38:21;20.90;99.90
64501;DHT22;50874;24.150;-110.320;2024-03-23T06:40:48;20.90;99.90
64501;DHT22;50874;24.150;-110.320;2024-03-23T06:43:16;20.80;99.90
64501;DHT22;50874;24.150;-110.320;2024-03-23T06:45:43;20.70;99.90
64501;DHT22;50874;24.150;-110.320;2024-03-23T06:48:09;20.70;99.90
64501;DHT22;50874;24.150;-110.320;2024-03-23T06:50:36;20.60;99.90
64501;DHT22;50874;24.150;-110.320;2024-03-23T06:53:02;20.60;99.90
64501;DHT22;50874;24.150;-110.320;2024-03-23T06:55:31;20.60;99.90
64501;DHT22;50874;24.150;-110.320;2024-03-23T06:57:57;20.60;99.90
64501;DHT22;50874;24.150;-110.320;2024-03-23T07:00:24;20.50;99.90
64501;DHT22;50874;24.150;-110.320;2024-03-23T07:02:51;20.40;99.90
64501;DHT22;50874;24.150;-110.320;2024-03-23T07:05:17;20.40;99.90
64501;DHT22;50874;24.150;-110.320;2024-03-23T07:07:44;20.40;99.90
64501;DHT22;50874;24.150;-110.320;2024-03-23T07:10:10;20.40;99.90
64501;DHT22;50874;24.150;-110.320;2024-03-23T07:12:37;20.30;99.90
64501;DHT22;50874;24.150;-110.320;2024-03-23T07:15:04;20.30;99.90
64501;DHT22;50874;24.150;-110.320;2024-03-23T07:17:31;20.20;99.90
64501;DHT22;50874;24.150;-110.320;2024-03-23T07:19:58;20.20;99.90
64501;DHT22;50874;24.150;-110.320;2024-03-23T07:22:27;20.10;99.90
64501;DHT22;50874;24.150;-110.320;2024-03-23T07:24:53;20.10;99.90
64501;DHT22;50874;24.150;-110.320;2024-03-23T07:27:20;20.10;99.90
64501;DHT22;50874;24.150;-110.320;2024-03-23T07:29:46;19.90;99.90
64501;DHT22;50874;24.150;-110.320;2024-03-23T07:32:13;19.90;99.90
64501;DHT22;50874;24.150;-110.320;2024-03-23T07:34:39;19.90;99.90
64501;DHT22;50874;24.150;-110.320;2024-03-23T07:37:06;19.90;99.90
64501;DHT22;50874;24.150;-110.320;2024-03-23T07:39:32;19.80;99.90
64501;DHT22;50874;24.150;-110.320;2024-03-23T07:42:00;19.90;99.90
64501;DHT22;50874;24.150;-110.320;2024-03-23T07:44:26;19.80;99.90
64501;DHT22;50874;24.150;-110.320;2024-03-23T07:46:52;19.80;99.90
64501;DHT22;50874;24.150;-110.320;2024-03-23T07:49:19;19.80;99.90
64501;DHT22;50874;24.150;-110.320;2024-03-23T07:51:45;19.80;99.90
64501;DHT22;50874;24.150;-110.320;2024-03-23T07:54:12;19.70;99.90
64501;DHT22;50874;24.150;-110.320;2024-03-23T07:56:38;19.70;99.90
64501;DHT22;50874;24.150;-110.320;2024-03-23T07:59:05;19.70;99.90
64501;DHT22;50874;24.150;-110.320;2024-03-23T08:01:31;19.60;99.90
64501;DHT22;50874;24.150;-110.320;2024-03-23T08:03:58;19.60;99.90
64501;DHT22;50874;24.150;-110.320;2024-03-23T08:06:27;19.50;99.90
64501;DHT22;50874;24.150;-110.320;2024-03-23T08:08:55;19.50;99.90
64501;DHT22;50874;24.150;-110.320;2024-03-23T08:11:32;19.40;99.90
64501;DHT22;50874;24.150;-110.320;2024-03-23T08:14:02;19.40;99.90
64501;DHT22;50874;24.150;-110.320;2024-03-23T08:16:28;19.40;99.90
64501;DHT22;50874;24.150;-110.320;2024-03-23T08:18:55;19.30;99.90
64501;DHT22;50874;24.150;-110.320;2024-03-23T08:21:22;19.30;99.90
64501;DHT22;50874;24.150;-110.320;2024-03-23T08:23:48;19.30;99.90
64501;DHT22;50874;24.150;-110.320;2024-03-23T08:26:16;19.30;99.90
64501;DHT22;50874;24.150;-110.320;2024-03-23T08:28:45;19.30;99.90
64501;DHT22;50874;24.150;-110.320;2024-03-23T08:31:12;19.30;99.90
64501;DHT22;50874;24.150;-110.320;2024-03-23T08:33:40;19.30;99.90
64501;DHT22;50874;24.150;-110.320;2024-03-23T08:36:10;19.30;99.90
64501;DHT22;50874;24.150;-110.320;2024-03-23T08:38:42;19.30;99.90
64501;DHT22;50874;24.150;-110.320;2024-03-23T08:41:11;19.40;99.90
64501;DHT22;50874;24.150;-110.320;2024-03-23T08:43:41;19.50;99.90
64501;DHT22;50874;24.150;-110.320;2024-03-23T08:46:12;19.60;99.90
64501;DHT22;50874;24.150;-110.320;2024-03-23T08:48:43;19.70;99.90
64501;DHT22;50874;24.150;-110.320;2024-03-23T08:51:12;19.80;99.90
64501;DHT22;50874;24.150;-110.320;2024-03-23T08:53:40;19.90;99.90
64501;DHT22;50874;24.150;-110.320;2024-03-23T08:56:07;19.90;99.90
64501;DHT22;50874;24.150;-110.320;2024-03-23T08:58:35;19.90;99.90
64501;DHT22;50874;24.150;-110.320;2024-03-23T09:01:19;19.90;99.90
64501;DHT22;50874;24.150;-110.320;2024-03-23T09:03:45;19.90;99.90
64501;DHT22;50874;24.150;-110.320;2024-03-23T09:06:14;19.90;99.90
64501;DHT22;50874;24.150;-110.320;2024-03-23T09:08:41;19.90;99.90
64501;DHT22;50874;24.150;-110.320;2024-03-23T09:11:09;19.90;99.90
64501;DHT22;50874;24.150;-110.320;2024-03-23T09:13:37;19.80;99.90
64501;DHT22;50874;24.150;-110.320;2024-03-23T09:16:05;19.80;99.90
64501;DHT22;50874;24.150;-110.320;2024-03-23T09:18:33;19.80;99.90
64501;DHT22;50874;24.150;-110.320;2024-03-23T09:21:01;19.70;99.90
64501;DHT22;50874;24.150;-110.320;2024-03-23T09:23:28;19.70;99.90
64501;DHT22;50874;24.150;-110.320;2024-03-23T09:25:54;19.70;99.90
64501;DHT22;50874;24.150;-110.320;2024-03-23T09:28:21;19.60;99.90
64501;DHT22;50874;24.150;-110.320;2024-03-23T09:30:48;19.60;99.90
64501;DHT22;50874;24.150;-110.320;2024-03-23T09:33:14;19.50;99.90
64501;DHT22;50874;24.150;-110.320;2024-03-23T09:35:43;19.50;99.90
64501;DHT22;50874;24.150;-110.320;2024-03-23T09:38:13;19.40;99.90
64501;DHT22;50874;24.150;-110.320;2024-03-23T09:40:43;19.40;99.90
64501;DHT22;50874;24.150;-110.320;2024-03-23T09:43:10;19.30;99.90
64501;DHT22;50874;24.150;-110.320;2024-03-23T09:45:39;19.30;99.90
64501;DHT22;50874;24.150;-110.320;2024-03-23T09:48:10;19.20;99.90
64501;DHT22;50874;24.150;-110.320;2024-03-23T09:50:40;19.20;99.90
64501;DHT22;50874;24.150;-110.320;2024-03-23T09:53:07;19.10;99.90
64501;DHT22;50874;24.150;-110.320;2024-03-23T09:55:34;19.10;99.90
64501;DHT22;50874;24.150;-110.320;2024-03-23T09:58:04;19.10;99.90
64501;DHT22;50874;24.150;-110.320;2024-03-23T10:00:32;19.00;99.90
64501;DHT22;50874;24.150;-110.320;2024-03-23T10:03:00;19.00;99.90
64501;DHT22;50874;24.150;-110.320;2024-03-23T10:05:29;18.90;99.90
64501;DHT22;50874;24.150;-110.320;2024-03-23T10:10:41;18.80;99.90
64501;DHT22;50874;24.150;-110.320;2024-03-23T10:13:08;18.80;99.90
64501;DHT22;50874;24.150;-110.320;2024-03-23T10:15:36;18.70;99.90
64501;DHT22;50874;24.150;-110.320;2024-03-23T10:18:18;18.60;99.90
64501;DHT22;50874;24.150;-110.320;2024-03-23T10:20:52;18.60;99.90
64501;DHT22;50874;24.150;-110.320;2024-03-23T10:23:33;18.60;99.90
64501;DHT22;50874;24.150;-110.320;2024-03-23T10:26:20;18.50;99.90
64501;DHT22;50874;24.150;-110.320;2024-03-23T10:28:54;18.40;99.90
64501;DHT22;50874;24.150;-110.320;2024-03-23T10:31:24;18.40;99.90
64501;DHT22;50874;24.150;-110.320;2024-03-23T10:33:51;18.40;99.90
64501;DHT22;50874;24.150;-110.320;2024-03-23T10:36:21;18.30;99.90
64501;DHT22;50874;24.150;-110.320;2024-03-23T10:38:50;18.30;99.90
64501;DHT22;50874;24.150;-110.320;2024-03-23T10:41:18;18.20;99.90
64501;DHT22;50874;24.150;-110.320;2024-03-23T10:43:46;18.20;99.90
64501;DHT22;50874;24.150;-110.320;2024-03-23T10:46:13;18.10;99.90
64501;DHT22;50874;24.150;-110.320;2024-03-23T10:48:40;18.10;99.90
64501;DHT22;50874;24.150;-110.320;2024-03-23T10:51:08;18.20;99.90
64501;DHT22;50874;24.150;-110.320;2024-03-23T10:53:35;18.20;99.90
64501;DHT22;50874;24.150;-110.320;2024-03-23T10:56:03;18.10;99.90
64501;DHT22;50874;24.150;-110.320;2024-03-23T10:58:43;18.10;99.90
64501;DHT22;50874;24.150;-110.320;2024-03-23T11:01:14;18.20;99.90
64501;DHT22;50874;24.150;-110.320;2024-03-23T11:03:47;18.20;99.90
64501;DHT22;50874;24.150;-110.320;2024-03-23T11:06:37;18.20;99.90
64501;DHT22;50874;24.150;-110.320;2024-03-23T11:09:09;18.10;99.90
64501;DHT22;50874;24.150;-110.320;2024-03-23T11:11:50;18.10;99.90
64501;DHT22;50874;24.150;-110.320;2024-03-23T11:14:22;18.10;99.90
64501;DHT22;50874;24.150;-110.320;2024-03-23T11:17:08;18.10;99.90
64501;DHT22;50874;24.150;-110.320;2024-03-23T11:19:39;18.10;99.90
64501;DHT22;50874;24.150;-110.320;2024-03-23T11:22:05;18.10;99.90
64501;DHT22;50874;24.150;-110.320;2024-03-23T11:24:34;18.20;99.90
64501;DHT22;50874;24.150;-110.320;2024-03-23T11:27:01;18.10;99.90
64501;DHT22;50874;24.150;-110.320;2024-03-23T11:29:30;18.10;99.90
64501;DHT22;50874;24.150;-110.320;2024-03-23T11:31:57;18.10;99.90
64501;DHT22;50874;24.150;-110.320;2024-03-23T11:34:24;18.10;99.90
64501;DHT22;50874;24.150;-110.320;2024-03-23T11:36:50;18.10;99.90
64501;DHT22;50874;24.150;-110.320;2024-03-23T11:39:28;18.10;99.90
64501;DHT22;50874;24.150;-110.320;2024-03-23T11:41:56;18.10;99.90
64501;DHT22;50874;24.150;-110.320;2024-03-23T11:44:25;18.10;99.90
64501;DHT22;50874;24.150;-110.320;2024-03-23T11:46:53;18.20;99.90
64501;DHT22;50874;24.150;-110.320;2024-03-23T11:49:27;18.20;99.90
64501;DHT22;50874;24.150;-110.320;2024-03-23T11:51:55;18.20;99.90
64501;DHT22;50874;24.150;-110.320;2024-03-23T11:54:23;18.10;99.90
64501;DHT22;50874;24.150;-110.320;2024-03-23T11:57:00;18.10;99.90
64501;DHT22;50874;24.150;-110.320;2024-03-23T11:59:37;18.10;99.90
64501;DHT22;50874;24.150;-110.320;2024-03-23T12:02:11;18.20;99.90
64501;DHT22;50874;24.150;-110.320;2024-03-23T12:04:40;18.20;99.90
64501;DHT22;50874;24.150;-110.320;2024-03-23T12:07:20;18.10;99.90
64501;DHT22;50874;24.150;-110.320;2024-03-23T12:10:03;18.20;99.90
64501;DHT22;50874;24.150;-110.320;2024-03-23T12:12:30;18.20;99.90
64501;DHT22;50874;24.150;-110.320;2024-03-23T12:15:07;18.20;99.90
64501;DHT22;50874;24.150;-110.320;2024-03-23T12:17:35;18.20;99.90
64501;DHT22;50874;24.150;-110.320;2024-03-23T12:20:02;18.20;99.90
64501;DHT22;50874;24.150;-110.320;2024-03-23T12:22:28;18.20;99.90
64501;DHT22;50874;24.150;-110.320;2024-03-23T12:24:58;18.20;99.90
64501;DHT22;50874;24.150;-110.320;2024-03-23T12:27:24;18.20;99.90
64501;DHT22;50874;24.150;-110.320;2024-03-23T12:29:51;18.20;99.90
64501;DHT22;50874;24.150;-110.320;2024-03-23T12:32:17;18.20;99.90
64501;DHT22;50874;24.150;-110.320;2024-03-23T12:34:44;18.20;99.90
64501;DHT22;50874;24.150;-110.320;2024-03-23T12:37:11;18.20;99.90
64501;DHT22;50874;24.150;-110.320;2024-03-23T12:39:38;18.10;99.90
64501;DHT22;50874;24.150;-110.320;2024-03-23T12:42:05;18.10;99.90
64501;DHT22;50874;24.150;-110.320;2024-03-23T12:44:31;18.10;99.90
64501;DHT22;50874;24.150;-110.320;2024-03-23T12:46:58;18.00;99.90
64501;DHT22;50874;24.150;-110.320;2024-03-23T12:49:25;18.00;99.90
64501;DHT22;50874;24.150;-110.320;2024-03-23T12:51:56;18.00;99.90
64501;DHT22;50874;24.150;-110.320;2024-03-23T12:54:23;18.10;99.90
64501;DHT22;50874;24.150;-110.320;2024-03-23T12:56:50;18.10;99.90
64501;DHT22;50874;24.150;-110.320;2024-03-23T12:59:17;18.10;99.90
64501;DHT22;50874;24.150;-110.320;2024-03-23T13:01:45;18.10;99.90
64501;DHT22;50874;24.150;-110.320;2024-03-23T13:04:11;18.10;99.90
64501;DHT22;50874;24.150;-110.320;2024-03-23T13:06:38;18.10;99.90
64501;DHT22;50874;24.150;-110.320;2024-03-23T13:09:05;18.00;99.90
64501;DHT22;50874;24.150;-110.320;2024-03-23T13:11:31;18.10;99.90
64501;DHT22;50874;24.150;-110.320;2024-03-23T13:13:58;18.00;99.90
64501;DHT22;50874;24.150;-110.320;2024-03-23T13:16:24;17.90;99.90
64501;DHT22;50874;24.150;-110.320;2024-03-23T13:18:51;17.90;99.90
64501;DHT22;50874;24.150;-110.320;2024-03-23T13:21:17;17.90;99.90
64501;DHT22;50874;24.150;-110.320;2024-03-23T13:23:47;17.80;99.90
64501;DHT22;50874;24.150;-110.320;2024-03-23T13:26:14;17.80;99.90
64501;DHT22;50874;24.150;-110.320;2024-03-23T13:28:40;17.80;99.90
64501;DHT22;50874;24.150;-110.320;2024-03-23T13:31:07;17.80;99.90
64501;DHT22;50874;24.150;-110.320;2024-03-23T13:33:34;17.80;99.90
64501;DHT22;50874;24.150;-110.320;2024-03-23T13:36:01;17.80;99.90
64501;DHT22;50874;24.150;-110.320;2024-03-23T13:38:29;17.80;99.90
64501;DHT22;50874;24.150;-110.320;2024-03-23T13:40:59;17.90;99.90
64501;DHT22;50874;24.150;-110.320;2024-03-23T13:43:27;18.00;99.90
64501;DHT22;50874;24.150;-110.320;2024-03-23T13:45:55;18.00;99.90
64501;DHT22;50874;24.150;-110.320;2024-03-23T13:48:24;18.10;99.90
64501;DHT22;50874;24.150;-110.320;2024-03-23T13:51:01;18.20;99.90
64501;DHT22;50874;24.150;-110.320;2024-03-23T13:53:28;18.20;99.90
64501;DHT22;50874;24.150;-110.320;2024-03-23T13:55:55;18.30;99.90
64501;DHT22;50874;24.150;-110.320;2024-03-23T13:58:22;18.30;99.90
64501;DHT22;50874;24.150;-110.320;2024-03-23T14:00:52;18.40;99.90
64501;DHT22;50874;24.150;-110.320;2024-03-23T14:03:19;18.40;99.90
64501;DHT22;50874;24.150;-110.320;2024-03-23T14:05:45;18.50;99.90
64501;DHT22;50874;24.150;-110.320;2024-03-23T14:08:13;18.50;99.90
64501;DHT22;50874;24.150;-110.320;2024-03-23T14:10:43;18.50;99.90
64501;DHT22;50874;24.150;-110.320;2024-03-23T14:13:10;18.60;99.90
64501;DHT22;50874;24.150;-110.320;2024-03-23T14:15:37;18.60;99.90
64501;DHT22;50874;24.150;-110.320;2024-03-23T14:18:03;18.80;99.90
64501;DHT22;50874;24.150;-110.320;2024-03-23T14:20:30;18.90;99.90
64501;DHT22;50874;24.150;-110.320;2024-03-23T14:22:57;19.10;99.90
64501;DHT22;50874;24.150;-110.320;2024-03-23T14:25:23;19.30;99.90
64501;DHT22;50874;24.150;-110.320;2024-03-23T14:27:53;19.60;99.90
64501;DHT22;50874;24.150;-110.320;2024-03-23T14:30:19;20.00;99.90
64501;DHT22;50874;24.150;-110.320;2024-03-23T14:32:46;20.60;99.90
64501;DHT22;50874;24.150;-110.320;2024-03-23T14:35:12;21.30;99.90
64501;DHT22;50874;24.150;-110.320;2024-03-23T14:37:39;21.90;99.90
64501;DHT22;50874;24.150;-110.320;2024-03-23T14:40:09;22.50;99.90
64501;DHT22;50874;24.150;-110.320;2024-03-23T14:42:39;23.10;99.90
64501;DHT22;50874;24.150;-110.320;2024-03-23T14:45:07;23.50;99.90
64501;DHT22;50874;24.150;-110.320;2024-03-23T14:47:34;23.70;99.90
64501;DHT22;50874;24.150;-110.320;2024-03-23T14:50:00;24.10;99.90
64501;DHT22;50874;24.150;-110.320;2024-03-23T14:52:27;24.20;99.90
64501;DHT22;50874;24.150;-110.320;2024-03-23T14:54:55;24.50;99.90
64501;DHT22;50874;24.150;-110.320;2024-03-23T14:57:22;24.50;99.90
64501;DHT22;50874;24.150;-110.320;2024-03-23T14:59:49;24.70;99.90
64501;DHT22;50874;24.150;-110.320;2024-03-23T15:02:15;24.90;99.90
64501;DHT22;50874;24.150;-110.320;2024-03-23T15:04:41;24.80;99.90
64501;DHT22;50874;24.150;-110.320;2024-03-23T15:07:08;24.80;99.90
64501;DHT22;50874;24.150;-110.320;2024-03-23T15:09:35;25.00;99.90
64501;DHT22;50874;24.150;-110.320;2024-03-23T15:12:01;25.00;99.90
64501;DHT22;50874;24.150;-110.320;2024-03-23T15:14:27;25.30;99.90
64501;DHT22;50874;24.150;-110.320;2024-03-23T15:16:54;25.80;99.90
64501;DHT22;50874;24.150;-110.320;2024-03-23T15:19:20;26.10;99.90
64501;DHT22;50874;24.150;-110.320;2024-03-23T15:21:47;26.40;99.90
64501;DHT22;50874;24.150;-110.320;2024-03-23T15:24:13;26.50;99.90
64501;DHT22;50874;24.150;-110.320;2024-03-23T15:26:40;26.90;99.90
64501;DHT22;50874;24.150;-110.320;2024-03-23T15:29:08;26.80;99.90
64501;DHT22;50874;24.150;-110.320;2024-03-23T15:31:34;26.90;99.90
64501;DHT22;50874;24.150;-110.320;2024-03-23T15:34:01;27.10;99.90
64501;DHT22;50874;24.150;-110.320;2024-03-23T15:36:27;27.30;99.90
64501;DHT22;50874;24.150;-110.320;2024-03-23T15:38:54;27.30;98.90
64501;DHT22;50874;24.150;-110.320;2024-03-23T15:41:21;27.60;98.90
64501;DHT22;50874;24.150;-110.320;2024-03-23T15:43:49;27.70;99.10
64501;DHT22;50874;24.150;-110.320;2024-03-23T15:46:16;27.70;98.50
64501;DHT22;50874;24.150;-110.320;2024-03-23T15:48:45;27.80;98.30